Lewisport, KY

5:14 PM CDT on September 01, 2015 (GMT -0500)
RMR - Owensboro | Change Station
CLOSE
Current Station
Personal Weather Station
Location: Owensboro, KY
Elevation: 387 ft
Nearby Weather Stations

Elev 387 ft 37.83 °N, 87.02 °W | Updated 4 minutes ago

Partly Cloudy
Partly Cloudy
87.5 °F
Feels Like 92 °F
N
0.0
Wind Variable Wind from SW
Gusts 0.0 mph

Today
High -- | Low -- °F
--% Chance of Precip.
Yesterday
High -- | Low -- °F
Precip. -- in
6:17 AM 7:17 PM
Waning Gibbous, 86% visible
Pressure 30.06 in
Visibility 10.0 miles
Clouds Clear
Heat Index 92 °F
Dew Point 69 °F
Humidity 55%
Rainfall 0.00 in
Snow Depth Not available.
UV 3 out of 12
Pollen 10.40 out of 12
Air Quality Not available.
Flu Activity Not available.
METAR KOWB 012156Z 22006KT 10SM CLR 33/20 A3007 RMK AO2 T03270200 SLP180

More Conditions Fewer Conditions

Pressure 30.06 in
Visibility 10.0 miles
Clouds Clear
Heat Index 92 °F
Dew Point 69 °F
Humidity 55%
Rainfall 0.00 in
Snow Depth Not available.
UV 3 out of 12
Pollen 10.40 out of 12
Air Quality Not available.
Flu Activity Not available.
METAR KOWB 012156Z 22006KT 10SM CLR 33/20 A3007 RMK AO2 T03270200 SLP180

More Conditions Fewer Conditions

10-Day Weather Forecast

Almanac

Astronomy

Sep. 01, 2015 Rise Set
Actual Time 6:17 AM CDT 7:17 PM CDT
Civil Twilight 5:50 AM CDT 7:44 PM CDT
Nautical Twilight 5:18 AM CDT 8:16 PM CDT
Astronomical Twilight 4:45 AM CDT 8:49 PM CDT
Moon 9:18 PM CDT 9:33 AM CDT
Length of Visible Light 13h 53m
Length of Day
12h 59m
Tomorrow will be 2m 21s shorter.
Waning Gibbous, 86% of the Moon is Illuminated
Today
Waning Gibbous
Sep 5
Last Quarter
Sep 13
New
Sep 21
First Quarter
Sep 27
Full

Today's Extremes

State Highs State Lows

Community

WunderPhotos

Upload Photos

1,851,632 photos uploaded!

WunderBlogs® & News

Nearby

Snow Depth

Station Depth Elevation
No new snow has been reported.

Earthquake Activity

City Distance Mag. Time & Date
No recent earthquake activity has been reported nearby.
Minimum magnitude displayed is 2.5.

Coastal Water Temperatures

Place Temperature
No Stations Reporting

Nearby Weather Stations